sensor_id;sensor_type;location;lat;lon;timestamp;pressure;altitude;pressure_sealevel;temperature;humidity
47716;BME280;33476;50.984;3.538;2023-01-27T00:00:22;102631.88;;;8.55;61.84
47716;BME280;33476;50.984;3.538;2023-01-27T00:02:47;102631.91;;;8.52;61.97
47716;BME280;33476;50.984;3.538;2023-01-27T00:05:14;102631.94;;;8.49;61.88
47716;BME280;33476;50.984;3.538;2023-01-27T00:07:41;102625.84;;;8.53;61.78
47716;BME280;33476;50.984;3.538;2023-01-27T00:10:12;102627.56;;;8.54;61.57
47716;BME280;33476;50.984;3.538;2023-01-27T00:12:37;102627.53;;;8.52;62.17
47716;BME280;33476;50.984;3.538;2023-01-27T00:15:21;102622.34;;;8.54;61.84
47716;BME280;33476;50.984;3.538;2023-01-27T00:17:46;102626.69;;;8.53;61.59
47716;BME280;33476;50.984;3.538;2023-01-27T00:20:12;102631.03;;;8.53;61.21
47716;BME280;33476;50.984;3.538;2023-01-27T00:22:37;102625.00;;;8.49;61.72
47716;BME280;33476;50.984;3.538;2023-01-27T00:25:21;102631.94;;;8.49;61.48
47716;BME280;33476;50.984;3.538;2023-01-27T00:27:46;102629.34;;;8.47;61.19
47716;BME280;33476;50.984;3.538;2023-01-27T00:30:11;102629.41;;;8.44;61.54
47716;BME280;33476;50.984;3.538;2023-01-27T00:32:37;102625.88;;;8.47;61.58
47716;BME280;33476;50.984;3.538;2023-01-27T00:35:21;102621.53;;;8.49;61.22
47716;BME280;33476;50.984;3.538;2023-01-27T00:37:47;102622.44;;;8.46;61.70
47716;BME280;33476;50.984;3.538;2023-01-27T00:40:14;102616.38;;;8.44;61.30
47716;BME280;33476;50.984;3.538;2023-01-27T00:42:41;102616.38;;;8.44;61.40
47716;BME280;33476;50.984;3.538;2023-01-27T00:45:07;102620.69;;;8.47;61.09
47716;BME280;33476;50.984;3.538;2023-01-27T00:47:51;102620.63;;;8.50;61.55
47716;BME280;33476;50.984;3.538;2023-01-27T00:50:17;102616.31;;;8.49;61.31
47716;BME280;33476;50.984;3.538;2023-01-27T00:52:43;102609.38;;;8.49;61.03
47716;BME280;33476;50.984;3.538;2023-01-27T00:55:09;102610.25;;;8.48;61.15
47716;BME280;33476;50.984;3.538;2023-01-27T00:57:35;102614.63;;;8.46;61.01
47716;BME280;33476;50.984;3.538;2023-01-27T01:00:02;102612.00;;;8.46;61.56
47716;BME280;33476;50.984;3.538;2023-01-27T01:02:28;102608.56;;;8.44;61.29
47716;BME280;33476;50.984;3.538;2023-01-27T01:04:53;102615.53;;;8.40;61.66
47716;BME280;33476;50.984;3.538;2023-01-27T01:07:18;102605.09;;;8.42;61.35
47716;BME280;33476;50.984;3.538;2023-01-27T01:09:44;102600.75;;;8.44;61.54
47716;BME280;33476;50.984;3.538;2023-01-27T01:12:09;102605.09;;;8.42;61.60
47716;BME280;33476;50.984;3.538;2023-01-27T01:14:34;102601.63;;;8.44;61.37
47716;BME280;33476;50.984;3.538;2023-01-27T01:17:00;102598.09;;;8.47;61.20
47716;BME280;33476;50.984;3.538;2023-01-27T01:19:25;102603.31;;;8.47;61.04
47716;BME280;33476;50.984;3.538;2023-01-27T01:21:50;102601.56;;;8.48;61.33
47716;BME280;33476;50.984;3.538;2023-01-27T01:24:16;102605.09;;;8.45;61.56
47716;BME280;33476;50.984;3.538;2023-01-27T01:26:41;102595.56;;;8.44;61.85
47716;BME280;33476;50.984;3.538;2023-01-27T01:29:06;102595.59;;;8.39;61.55
47716;BME280;33476;50.984;3.538;2023-01-27T01:31:32;102604.22;;;8.41;61.51
47716;BME280;33476;50.984;3.538;2023-01-27T01:33:57;102593.75;;;8.48;61.45
47716;BME280;33476;50.984;3.538;2023-01-27T01:36:23;102603.25;;;8.53;61.54
47716;BME280;33476;50.984;3.538;2023-01-27T01:38:53;102597.22;;;8.48;61.39
47716;BME280;33476;50.984;3.538;2023-01-27T01:41:20;102600.66;;;8.52;61.37
47716;BME280;33476;50.984;3.538;2023-01-27T01:43:46;102605.81;;;8.56;61.64
47716;BME280;33476;50.984;3.538;2023-01-27T01:46:12;102602.34;;;8.56;61.70
47716;BME280;33476;50.984;3.538;2023-01-27T01:48:59;102600.72;;;8.47;61.99
47716;BME280;33476;50.984;3.538;2023-01-27T01:51:30;102598.06;;;8.53;61.79
47716;BME280;33476;50.984;3.538;2023-01-27T01:54:08;102594.59;;;8.50;61.50
47716;BME280;33476;50.984;3.538;2023-01-27T01:56:40;102592.00;;;8.50;61.77
47716;BME280;33476;50.984;3.538;2023-01-27T01:59:12;102591.09;;;8.54;61.72
47716;BME280;33476;50.984;3.538;2023-01-27T02:01:39;102589.31;;;8.57;61.98
47716;BME280;33476;50.984;3.538;2023-01-27T02:04:08;102594.53;;;8.56;62.12
47716;BME280;33476;50.984;3.538;2023-01-27T02:06:42;102589.34;;;8.54;61.96
47716;BME280;33476;50.984;3.538;2023-01-27T02:09:10;102586.75;;;8.54;62.64
47716;BME280;33476;50.984;3.538;2023-01-27T02:11:35;102589.38;;;8.51;62.53
47716;BME280;33476;50.984;3.538;2023-01-27T02:14:01;102585.03;;;8.52;63.24
47716;BME280;33476;50.984;3.538;2023-01-27T02:16:27;102584.16;;;8.53;62.73
47716;BME280;33476;50.984;3.538;2023-01-27T02:18:53;102580.69;;;8.54;62.81
47716;BME280;33476;50.984;3.538;2023-01-27T02:21:18;102585.88;;;8.54;63.21
47716;BME280;33476;50.984;3.538;2023-01-27T02:23:54;102571.13;;;8.54;63.54
47716;BME280;33476;50.984;3.538;2023-01-27T02:26:35;102571.97;;;8.56;63.17
47716;BME280;33476;50.984;3.538;2023-01-27T02:29:05;102573.63;;;8.62;63.41
47716;BME280;33476;50.984;3.538;2023-01-27T02:31:31;102577.91;;;8.66;62.79
47716;BME280;33476;50.984;3.538;2023-01-27T02:33:59;102578.81;;;8.65;63.19
47716;BME280;33476;50.984;3.538;2023-01-27T02:36:29;102574.50;;;8.59;63.26
47716;BME280;33476;50.984;3.538;2023-01-27T02:38:58;102580.59;;;8.61;63.11
47716;BME280;33476;50.984;3.538;2023-01-27T02:41:26;102584.06;;;8.62;63.13
47716;BME280;33476;50.984;3.538;2023-01-27T02:43:54;102582.28;;;8.64;63.48
47716;BME280;33476;50.984;3.538;2023-01-27T02:46:20;102579.66;;;8.65;63.86
47716;BME280;33476;50.984;3.538;2023-01-27T02:48:45;102578.81;;;8.65;63.61
47716;BME280;33476;50.984;3.538;2023-01-27T02:51:10;102582.31;;;8.62;63.60
47716;BME280;33476;50.984;3.538;2023-01-27T02:53:36;102581.47;;;8.62;63.59
47716;BME280;33476;50.984;3.538;2023-01-27T02:56:02;102587.53;;;8.59;63.78
47716;BME280;33476;50.984;3.538;2023-01-27T02:58:28;102580.59;;;8.58;64.36
47716;BME280;33476;50.984;3.538;2023-01-27T03:00:53;102576.25;;;8.59;63.70
47716;BME280;33476;50.984;3.538;2023-01-27T03:03:18;102580.59;;;8.58;64.24
47716;BME280;33476;50.984;3.538;2023-01-27T03:05:44;102581.53;;;8.56;64.34
47716;BME280;33476;50.984;3.538;2023-01-27T03:08:10;102583.28;;;8.54;64.08
47716;BME280;33476;50.984;3.538;2023-01-27T03:10:36;102575.44;;;8.57;64.63
47716;BME280;33476;50.984;3.538;2023-01-27T03:13:02;102583.25;;;8.55;64.17
47716;BME280;33476;50.984;3.538;2023-01-27T03:15:27;102576.28;;;8.57;64.09
47716;BME280;33476;50.984;3.538;2023-01-27T03:18:11;102578.88;;;8.59;64.55
47716;BME280;33476;50.984;3.538;2023-01-27T03:20:38;102586.66;;;8.60;64.39
47716;BME280;33476;50.984;3.538;2023-01-27T03:23:05;102582.34;;;8.61;64.06
47716;BME280;33476;50.984;3.538;2023-01-27T03:25:30;102581.56;;;8.51;64.42
47716;BME280;33476;50.984;3.538;2023-01-27T03:27:56;102581.56;;;8.50;65.00
47716;BME280;33476;50.984;3.538;2023-01-27T03:30:22;102570.31;;;8.49;65.11
47716;BME280;33476;50.984;3.538;2023-01-27T03:32:47;102574.63;;;8.50;64.71
47716;BME280;33476;50.984;3.538;2023-01-27T03:35:14;102575.47;;;8.52;65.08
47716;BME280;33476;50.984;3.538;2023-01-27T03:37:40;102576.34;;;8.54;64.56
47716;BME280;33476;50.984;3.538;2023-01-27T03:40:24;102581.56;;;8.53;64.64
47716;BME280;33476;50.984;3.538;2023-01-27T03:43:08;102583.31;;;8.49;65.14
47716;BME280;33476;50.984;3.538;2023-01-27T03:45:52;102576.44;;;8.43;65.02
47716;BME280;33476;50.984;3.538;2023-01-27T03:48:36;102569.50;;;8.46;64.55
47716;BME280;33476;50.984;3.538;2023-01-27T03:51:03;102572.94;;;8.46;65.00
47716;BME280;33476;50.984;3.538;2023-01-27T03:53:29;102579.91;;;8.46;65.20
47716;BME280;33476;50.984;3.538;2023-01-27T03:55:55;102577.28;;;8.47;64.47
47716;BME280;33476;50.984;3.538;2023-01-27T03:58:31;102579.94;;;8.44;65.24
47716;BME280;33476;50.984;3.538;2023-01-27T04:01:05;102575.56;;;8.43;64.65
47716;BME280;33476;50.984;3.538;2023-01-27T04:03:32;102574.72;;;8.41;65.08
47716;BME280;33476;50.984;3.538;2023-01-27T04:06:22;102577.38;;;8.33;64.65
47716;BME280;33476;50.984;3.538;2023-01-27T04:09:08;102580.00;;;8.35;64.71
47716;BME280;33476;50.984;3.538;2023-01-27T04:11:33;102581.75;;;8.36;64.94
47716;BME280;33476;50.984;3.538;2023-01-27T04:14:18;102574.75;;;8.39;64.62
47716;BME280;33476;50.984;3.538;2023-01-27T04:16:44;102592.09;;;8.40;65.12
47716;BME280;33476;50.984;3.538;2023-01-27T04:19:10;102579.13;;;8.37;64.93
47716;BME280;33476;50.984;3.538;2023-01-27T04:21:36;102576.50;;;8.39;64.57
47716;BME280;33476;50.984;3.538;2023-01-27T04:24:02;102581.69;;;8.39;64.41
47716;BME280;33476;50.984;3.538;2023-01-27T04:26:28;102579.97;;;8.39;64.62
47716;BME280;33476;50.984;3.538;2023-01-27T04:28:59;102586.94;;;8.37;64.08
47716;BME280;33476;50.984;3.538;2023-01-27T04:31:25;102593.88;;;8.35;63.70
47716;BME280;33476;50.984;3.538;2023-01-27T04:33:50;102589.56;;;8.36;63.74
47716;BME280;33476;50.984;3.538;2023-01-27T04:36:16;102580.88;;;8.37;63.49
47716;BME280;33476;50.984;3.538;2023-01-27T04:38:41;102581.69;;;8.34;63.45
47716;BME280;33476;50.984;3.538;2023-01-27T04:41:07;102581.69;;;8.34;63.70
47716;BME280;33476;50.984;3.538;2023-01-27T04:43:32;102586.91;;;8.34;63.51
47716;BME280;33476;50.984;3.538;2023-01-27T04:45:58;102590.41;;;8.35;63.70
47716;BME280;33476;50.984;3.538;2023-01-27T04:48:23;102596.47;;;8.35;63.98
47716;BME280;33476;50.984;3.538;2023-01-27T04:50:48;102593.00;;;8.35;63.54
47716;BME280;33476;50.984;3.538;2023-01-27T04:53:14;102599.09;;;8.32;63.36
47716;BME280;33476;50.984;3.538;2023-01-27T04:55:42;102594.75;;;8.31;63.62
47716;BME280;33476;50.984;3.538;2023-01-27T04:58:11;102608.69;;;8.26;64.09
47716;BME280;33476;50.984;3.538;2023-01-27T05:00:37;102602.66;;;8.22;64.15
47716;BME280;33476;50.984;3.538;2023-01-27T05:03:02;102602.69;;;8.17;63.76
47716;BME280;33476;50.984;3.538;2023-01-27T05:05:30;102613.19;;;8.11;64.14
47716;BME280;33476;50.984;3.538;2023-01-27T05:07:55;102611.50;;;8.06;64.21
47716;BME280;33476;50.984;3.538;2023-01-27T05:10:20;102605.44;;;8.02;64.47
47716;BME280;33476;50.984;3.538;2023-01-27T05:12:46;102609.78;;;8.02;64.05
47716;BME280;33476;50.984;3.538;2023-01-27T05:15:11;102618.47;;;8.01;64.27
47716;BME280;33476;50.984;3.538;2023-01-27T05:17:36;102616.75;;;7.98;64.29
47716;BME280;33476;50.984;3.538;2023-01-27T05:20:02;102614.16;;;7.98;64.46
47716;BME280;33476;50.984;3.538;2023-01-27T05:22:28;102620.25;;;7.97;63.77
47716;BME280;33476;50.984;3.538;2023-01-27T05:24:53;102624.56;;;8.00;63.28
47716;BME280;33476;50.984;3.538;2023-01-27T05:27:19;102622.00;;;7.94;63.76
47716;BME280;33476;50.984;3.538;2023-01-27T05:29:44;102611.59;;;7.94;63.50
47716;BME280;33476;50.984;3.538;2023-01-27T05:32:09;102615.13;;;7.88;63.43
47716;BME280;33476;50.984;3.538;2023-01-27T05:34:35;102613.34;;;7.92;63.16
47716;BME280;33476;50.984;3.538;2023-01-27T05:37:00;102616.81;;;7.91;63.22
47716;BME280;33476;50.984;3.538;2023-01-27T05:39:26;102625.53;;;7.88;63.35
47716;BME280;33476;50.984;3.538;2023-01-27T05:41:52;102612.50;;;7.89;63.04
47716;BME280;33476;50.984;3.538;2023-01-27T05:44:17;102622.03;;;7.91;63.50
47716;BME280;33476;50.984;3.538;2023-01-27T05:46:43;102624.59;;;7.94;63.13
47716;BME280;33476;50.984;3.538;2023-01-27T05:49:08;102624.59;;;7.92;62.85
47716;BME280;33476;50.984;3.538;2023-01-27T05:51:37;102627.22;;;7.91;63.11
47716;BME280;33476;50.984;3.538;2023-01-27T05:54:07;102622.06;;;7.87;63.14
47716;BME280;33476;50.984;3.538;2023-01-27T05:56:32;102628.16;;;7.83;63.00
47716;BME280;33476;50.984;3.538;2023-01-27T05:58:58;102636.88;;;7.79;63.25
47716;BME280;33476;50.984;3.538;2023-01-27T06:01:33;102636.81;;;7.82;63.51
47716;BME280;33476;50.984;3.538;2023-01-27T06:03:59;102639.41;;;7.84;62.96
47716;BME280;33476;50.984;3.538;2023-01-27T06:06:27;102639.47;;;7.78;63.19
47716;BME280;33476;50.984;3.538;2023-01-27T06:08:53;102639.53;;;7.72;63.25
47716;BME280;33476;50.984;3.538;2023-01-27T06:11:20;102649.06;;;7.67;63.37
47716;BME280;33476;50.984;3.538;2023-01-27T06:13:46;102660.38;;;7.64;63.26
47716;BME280;33476;50.984;3.538;2023-01-27T06:16:13;102654.31;;;7.59;63.11
47716;BME280;33476;50.984;3.538;2023-01-27T06:18:39;102658.66;;;7.58;63.25
47716;BME280;33476;50.984;3.538;2023-01-27T06:21:07;102665.63;;;7.56;63.17
47716;BME280;33476;50.984;3.538;2023-01-27T06:23:32;102669.06;;;7.60;62.97
47716;BME280;33476;50.984;3.538;2023-01-27T06:26:09;102681.19;;;7.59;62.86
47716;BME280;33476;50.984;3.538;2023-01-27T06:28:36;102696.78;;;7.59;63.53
47716;BME280;33476;50.984;3.538;2023-01-27T06:31:13;102679.53;;;7.48;62.97
47716;BME280;33476;50.984;3.538;2023-01-27T06:33:38;102682.13;;;7.49;63.28
47716;BME280;33476;50.984;3.538;2023-01-27T06:36:06;102677.81;;;7.45;63.09
47716;BME280;33476;50.984;3.538;2023-01-27T06:38:32;102670.03;;;7.45;62.89
47716;BME280;33476;50.984;3.538;2023-01-27T06:40:58;102680.44;;;7.39;62.83
47716;BME280;33476;50.984;3.538;2023-01-27T06:43:24;102677.81;;;7.42;62.64
47716;BME280;33476;50.984;3.538;2023-01-27T06:45:50;102683.03;;;7.39;62.44
47716;BME280;33476;50.984;3.538;2023-01-27T06:48:16;102691.72;;;7.38;62.35
47716;BME280;33476;50.984;3.538;2023-01-27T06:50:41;102693.47;;;7.38;62.97
47716;BME280;33476;50.984;3.538;2023-01-27T06:53:07;102698.63;;;7.42;62.80
47716;BME280;33476;50.984;3.538;2023-01-27T06:55:33;102688.22;;;7.41;62.90
47716;BME280;33476;50.984;3.538;2023-01-27T06:58:00;102694.28;;;7.41;62.48
47716;BME280;33476;50.984;3.538;2023-01-27T07:00:26;102698.59;;;7.44;62.02
47716;BME280;33476;50.984;3.538;2023-01-27T07:02:54;102697.75;;;7.46;62.62
47716;BME280;33476;50.984;3.538;2023-01-27T07:05:19;102702.91;;;7.49;62.63
47716;BME280;33476;50.984;3.538;2023-01-27T07:07:45;102715.06;;;7.44;62.34
47716;BME280;33476;50.984;3.538;2023-01-27T07:10:10;102715.97;;;7.45;62.79
47716;BME280;33476;50.984;3.538;2023-01-27T07:12:35;102722.88;;;7.43;62.95
47716;BME280;33476;50.984;3.538;2023-01-27T07:15:06;102724.66;;;7.38;62.99
47716;BME280;33476;50.984;3.538;2023-01-27T07:17:32;102728.94;;;7.42;63.04
47716;BME280;33476;50.984;3.538;2023-01-27T07:19:57;102737.59;;;7.47;62.98
47716;BME280;33476;50.984;3.538;2023-01-27T07:22:23;102730.66;;;7.44;63.44
47716;BME280;33476;50.984;3.538;2023-01-27T07:24:48;102739.34;;;7.43;63.40
47716;BME280;33476;50.984;3.538;2023-01-27T07:27:14;102739.34;;;7.42;62.85
47716;BME280;33476;50.984;3.538;2023-01-27T07:29:39;102742.84;;;7.33;63.70
47716;BME280;33476;50.984;3.538;2023-01-27T07:32:04;102755.88;;;7.31;63.28
47716;BME280;33476;50.984;3.538;2023-01-27T07:34:29;102751.53;;;7.30;63.03
47716;BME280;33476;50.984;3.538;2023-01-27T07:36:55;102761.94;;;7.23;63.21
47716;BME280;33476;50.984;3.538;2023-01-27T07:39:20;102759.38;;;7.21;63.80
47716;BME280;33476;50.984;3.538;2023-01-27T07:41:47;102761.09;;;7.18;63.38
47716;BME280;33476;50.984;3.538;2023-01-27T07:44:13;102767.16;;;7.21;63.30
47716;BME280;33476;50.984;3.538;2023-01-27T07:46:38;102771.47;;;7.18;63.38
47716;BME280;33476;50.984;3.538;2023-01-27T07:49:04;102766.28;;;7.19;63.12
47716;BME280;33476;50.984;3.538;2023-01-27T07:51:29;102778.41;;;7.17;63.27
47716;BME280;33476;50.984;3.538;2023-01-27T07:53:54;102776.72;;;7.12;63.58
47716;BME280;33476;50.984;3.538;2023-01-27T07:56:20;102771.53;;;7.12;63.64
47716;BME280;33476;50.984;3.538;2023-01-27T07:58:45;102773.22;;;7.16;63.45
47716;BME280;33476;50.984;3.538;2023-01-27T08:01:11;102771.50;;;7.13;63.59
47716;BME280;33476;50.984;3.538;2023-01-27T08:03:37;102771.50;;;7.15;63.43
47716;BME280;33476;50.984;3.538;2023-01-27T08:06:04;102775.81;;;7.19;63.36
47716;BME280;33476;50.984;3.538;2023-01-27T08:08:30;102776.69;;;7.18;62.85
47716;BME280;33476;50.984;3.538;2023-01-27T08:10:58;102781.91;;;7.15;62.65
47716;BME280;33476;50.984;3.538;2023-01-27T08:13:24;102789.72;;;7.13;62.69
47716;BME280;33476;50.984;3.538;2023-01-27T08:15:54;102787.97;;;7.12;62.72
47716;BME280;33476;50.984;3.538;2023-01-27T08:18:20;102795.75;;;7.14;63.01
47716;BME280;33476;50.984;3.538;2023-01-27T08:20:45;102792.31;;;7.12;62.73
47716;BME280;33476;50.984;3.538;2023-01-27T08:23:10;102807.00;;;7.11;62.57
47716;BME280;33476;50.984;3.538;2023-01-27T08:25:35;102801.81;;;7.14;63.20
47716;BME280;33476;50.984;3.538;2023-01-27T08:28:01;102796.59;;;7.17;62.67
47716;BME280;33476;50.984;3.538;2023-01-27T08:30:26;102797.47;;;7.18;62.95
47716;BME280;33476;50.984;3.538;2023-01-27T08:32:52;102794.88;;;7.24;62.12
47716;BME280;33476;50.984;3.538;2023-01-27T08:35:18;102802.69;;;7.22;62.58
47716;BME280;33476;50.984;3.538;2023-01-27T08:37:45;102806.16;;;7.14;62.65
47716;BME280;33476;50.984;3.538;2023-01-27T08:40:11;102804.44;;;7.08;62.53
47716;BME280;33476;50.984;3.538;2023-01-27T08:42:36;102803.56;;;7.14;62.22
47716;BME280;33476;50.984;3.538;2023-01-27T08:45:01;102802.69;;;7.13;62.34
47716;BME280;33476;50.984;3.538;2023-01-27T08:47:27;102807.03;;;7.13;62.58
47716;BME280;33476;50.984;3.538;2023-01-27T08:49:53;102813.06;;;7.18;62.35
47716;BME280;33476;50.984;3.538;2023-01-27T08:52:18;102809.59;;;7.17;61.65
47716;BME280;33476;50.984;3.538;2023-01-27T08:54:43;102813.06;;;7.19;61.85
47716;BME280;33476;50.984;3.538;2023-01-27T08:57:09;102815.66;;;7.24;61.76
47716;BME280;33476;50.984;3.538;2023-01-27T08:59:34;102824.31;;;7.27;61.75
47716;BME280;33476;50.984;3.538;2023-01-27T09:01:59;102816.50;;;7.27;61.46
47716;BME280;33476;50.984;3.538;2023-01-27T09:04:25;102823.44;;;7.33;61.77
47716;BME280;33476;50.984;3.538;2023-01-27T09:06:50;102829.50;;;7.40;61.80
47716;BME280;33476;50.984;3.538;2023-01-27T09:09:18;102830.38;;;7.39;61.70
47716;BME280;33476;50.984;3.538;2023-01-27T09:11:44;102832.09;;;7.35;61.39
47716;BME280;33476;50.984;3.538;2023-01-27T09:14:11;102839.03;;;7.38;61.60
47716;BME280;33476;50.984;3.538;2023-01-27T09:16:36;102836.41;;;7.36;61.44
47716;BME280;33476;50.984;3.538;2023-01-27T09:19:02;102837.28;;;7.40;61.53
47716;BME280;33476;50.984;3.538;2023-01-27T09:21:28;102836.41;;;7.41;61.27
47716;BME280;33476;50.984;3.538;2023-01-27T09:23:54;102833.84;;;7.38;61.36
47716;BME280;33476;50.984;3.538;2023-01-27T09:26:19;102833.84;;;7.38;61.37
47716;BME280;33476;50.984;3.538;2023-01-27T09:28:44;102843.34;;;7.40;61.01
47716;BME280;33476;50.984;3.538;2023-01-27T09:31:10;102841.63;;;7.39;61.68
47716;BME280;33476;50.984;3.538;2023-01-27T09:33:35;102842.47;;;7.41;61.26
47716;BME280;33476;50.984;3.538;2023-01-27T09:38:33;102845.06;;;7.44;61.37
47716;BME280;33476;50.984;3.538;2023-01-27T09:43:55;102844.16;;;7.53;61.85
47716;BME280;33476;50.984;3.538;2023-01-27T09:46:28;102846.78;;;7.57;61.38
47716;BME280;33476;50.984;3.538;2023-01-27T09:52:12;102848.50;;;7.58;61.22
47716;BME280;33476;50.984;3.538;2023-01-27T09:57:26;102832.84;;;7.69;61.05
47716;BME280;33476;50.984;3.538;2023-01-27T10:02:50;102833.66;;;7.88;61.14
47716;BME280;33476;50.984;3.538;2023-01-27T10:05:58;102827.31;;;8.39;59.59
47716;BME280;33476;50.984;3.538;2023-01-27T10:27:58;102832.31;;;10.27;54.94
47716;BME280;33476;50.984;3.538;2023-01-27T10:30:34;102832.81;;;10.50;54.42
47716;BME280;33476;50.984;3.538;2023-01-27T10:33:12;102823.63;;;12.15;51.51
47716;BME280;33476;50.984;3.538;2023-01-27T10:35:57;102827.06;;;11.75;51.35
47716;BME280;33476;50.984;3.538;2023-01-27T10:41:29;102820.13;;;12.14;50.72
47716;BME280;33476;50.984;3.538;2023-01-27T10:47:35;102835.41;;;10.53;54.31
47716;BME280;33476;50.984;3.538;2023-01-27T10:50:00;102838.59;;;10.12;55.50
47716;BME280;33476;50.984;3.538;2023-01-27T10:52:49;102829.44;;;9.80;55.59
47716;BME280;33476;50.984;3.538;2023-01-27T10:55:37;102824.38;;;9.65;55.81
47716;BME280;33476;50.984;3.538;2023-01-27T10:58:14;102823.63;;;9.57;55.90
47716;BME280;33476;50.984;3.538;2023-01-27T11:00:44;102824.41;;;9.64;55.94
47716;BME280;33476;50.984;3.538;2023-01-27T11:03:33;102819.84;;;10.46;55.12
47716;BME280;33476;50.984;3.538;2023-01-27T11:06:05;102823.63;;;11.30;52.37
47716;BME280;33476;50.984;3.538;2023-01-27T11:08:34;102815.69;;;10.86;52.72
47716;BME280;33476;50.984;3.538;2023-01-27T11:11:04;102818.53;;;10.73;52.87
47716;BME280;33476;50.984;3.538;2023-01-27T11:15:01;102813.19;;;13.18;50.02
47716;BME280;33476;50.984;3.538;2023-01-27T11:17:30;102803.84;;;15.79;42.76
47716;BME280;33476;50.984;3.538;2023-01-27T11:22:57;102809.44;;;12.25;48.98
47716;BME280;33476;50.984;3.538;2023-01-27T11:34:00;102814.47;;;9.95;52.72
47716;BME280;33476;50.984;3.538;2023-01-27T11:36:28;102814.69;;;9.75;53.10
47716;BME280;33476;50.984;3.538;2023-01-27T11:38:55;102812.28;;;9.60;53.15
47716;BME280;33476;50.984;3.538;2023-01-27T11:41:22;102812.38;;;9.53;53.53
47716;BME280;33476;50.984;3.538;2023-01-27T11:43:48;102810.66;;;9.49;53.59
47716;BME280;33476;50.984;3.538;2023-01-27T11:46:19;102805.53;;;9.42;53.61
47716;BME280;33476;50.984;3.538;2023-01-27T11:48:49;102801.25;;;9.38;53.97
47716;BME280;33476;50.984;3.538;2023-01-27T11:51:21;102798.66;;;9.36;53.75
47716;BME280;33476;50.984;3.538;2023-01-27T11:56:43;102799.59;;;9.29;53.24
47716;BME280;33476;50.984;3.538;2023-01-27T11:59:17;102801.44;;;9.19;53.82
47716;BME280;33476;50.984;3.538;2023-01-27T12:01:48;102807.56;;;9.15;53.94
47716;BME280;33476;50.984;3.538;2023-01-27T12:04:23;102791.13;;;9.07;53.93
47716;BME280;33476;50.984;3.538;2023-01-27T12:07:13;102795.53;;;9.04;53.86
47716;BME280;33476;50.984;3.538;2023-01-27T12:09:41;102791.22;;;8.99;54.11
47716;BME280;33476;50.984;3.538;2023-01-27T12:17:30;102785.28;;;8.87;54.86
47716;BME280;33476;50.984;3.538;2023-01-27T12:20:04;102793.13;;;8.82;54.64
47716;BME280;33476;50.984;3.538;2023-01-27T12:22:36;102787.13;;;8.72;54.73
47716;BME280;33476;50.984;3.538;2023-01-27T12:25:05;102784.53;;;8.68;54.98
47716;BME280;33476;50.984;3.538;2023-01-27T12:27:46;102781.16;;;8.58;55.03
47716;BME280;33476;50.984;3.538;2023-01-27T12:30:23;102790.72;;;8.58;55.17
47716;BME280;33476;50.984;3.538;2023-01-27T12:32:51;102782.84;;;8.65;54.42
47716;BME280;33476;50.984;3.538;2023-01-27T12:35:20;102772.47;;;8.59;54.39
47716;BME280;33476;50.984;3.538;2023-01-27T12:37:47;102777.69;;;8.58;55.15
47716;BME280;33476;50.984;3.538;2023-01-27T12:40:22;102774.25;;;8.56;54.84
47716;BME280;33476;50.984;3.538;2023-01-27T12:45:30;102763.84;;;8.51;54.78
47716;BME280;33476;50.984;3.538;2023-01-27T12:53:16;102765.72;;;8.37;55.54
47716;BME280;33476;50.984;3.538;2023-01-27T13:04:16;102777.03;;;8.28;55.67
47716;BME280;33476;50.984;3.538;2023-01-27T13:06:45;102767.53;;;8.23;54.95
47716;BME280;33476;50.984;3.538;2023-01-27T13:10:17;102772.75;;;8.16;55.86
47716;BME280;33476;50.984;3.538;2023-01-27T13:12:48;102774.50;;;8.17;55.84
47716;BME280;33476;50.984;3.538;2023-01-27T13:15:16;102770.13;;;8.21;55.82
47716;BME280;33476;50.984;3.538;2023-01-27T13:17:48;102771.00;;;8.22;55.12
47716;BME280;33476;50.984;3.538;2023-01-27T13:22:42;102776.19;;;8.23;54.89
47716;BME280;33476;50.984;3.538;2023-01-27T13:25:16;102768.41;;;8.17;55.50
47716;BME280;33476;50.984;3.538;2023-01-27T13:27:43;102770.94;;;8.26;55.06
47716;BME280;33476;50.984;3.538;2023-01-27T13:30:15;102773.56;;;8.26;55.12
47716;BME280;33476;50.984;3.538;2023-01-27T13:32:47;102766.59;;;8.27;55.24
47716;BME280;33476;50.984;3.538;2023-01-27T13:35:23;102764.06;;;8.22;55.69
47716;BME280;33476;50.984;3.538;2023-01-27T13:40:33;102760.66;;;8.14;55.92
47716;BME280;33476;50.984;3.538;2023-01-27T13:43:28;102767.59;;;8.10;55.50
47716;BME280;33476;50.984;3.538;2023-01-27T13:48:36;102771.94;;;8.08;55.48
47716;BME280;33476;50.984;3.538;2023-01-27T13:53:31;102768.47;;;8.12;55.01
47716;BME280;33476;50.984;3.538;2023-01-27T14:17:35;102785.84;;;8.07;55.82
47716;BME280;33476;50.984;3.538;2023-01-27T14:20:14;102784.09;;;8.09;55.88
47716;BME280;33476;50.984;3.538;2023-01-27T14:25:37;102791.06;;;8.01;56.32
47716;BME280;33476;50.984;3.538;2023-01-27T14:31:03;102785.03;;;7.99;56.05
47716;BME280;33476;50.984;3.538;2023-01-27T14:34:16;102793.66;;;8.01;56.32
47716;BME280;33476;50.984;3.538;2023-01-27T14:36:44;102800.59;;;8.02;56.12
47716;BME280;33476;50.984;3.538;2023-01-27T14:39:31;102801.50;;;8.03;56.36
47716;BME280;33476;50.984;3.538;2023-01-27T14:42:36;102794.56;;;7.99;56.50
47716;BME280;33476;50.984;3.538;2023-01-27T14:45:31;102802.38;;;7.99;56.42
47716;BME280;33476;50.984;3.538;2023-01-27T14:48:23;102804.97;;;7.99;56.71
47716;BME280;33476;50.984;3.538;2023-01-27T14:54:03;102806.72;;;7.92;57.08
47716;BME280;33476;50.984;3.538;2023-01-27T14:56:52;102815.41;;;7.96;56.93
47716;BME280;33476;50.984;3.538;2023-01-27T14:59:50;102818.00;;;7.93;56.85
47716;BME280;33476;50.984;3.538;2023-01-27T15:02:27;102814.53;;;7.98;56.84
47716;BME280;33476;50.984;3.538;2023-01-27T15:07:51;102815.41;;;7.93;57.10
47716;BME280;33476;50.984;3.538;2023-01-27T15:10:27;102818.00;;;7.94;57.21
47716;BME280;33476;50.984;3.538;2023-01-27T15:16:14;102827.56;;;7.86;57.20